Academy, New Jersey
Current Conditions -  °F | °C
As of 4:51 PM on Wednesday 28 Jan 2015 (Local Time) from KEWR Reporting Station
Clear Clear  
Wind Chill: -5°   Ceiling: Unl
Heat Index:   Visibility: 10mi
Dew Point: -14°   Wind: 12mph
Humidity: 34%   Direction: 320°NW
Pressure: 30.14"   Gusts: 23mph
Location:  40.7334°N, 74.1735°W
Report Text: KEWR 282151Z 32010G20KT 10SM CLR 00/M14 A3014 RMK AO2 SLP206 T00001144
Loading
Personal Weather Stations






























Interactive Weather Map New forecast layout! Learn more

10-Day Weather Forecast

Advertisements
Track Severe Weather on mobile